createdAt,value
2023-01-13T00:04:44.068Z,5.33
2023-01-13T00:09:46.185Z,5.45
2023-01-13T00:14:49.484Z,5.51
2023-01-13T00:19:51.656Z,5.53
2023-01-13T00:24:53.698Z,5.48
2023-01-13T00:29:57.088Z,5.67
2023-01-13T00:34:59.115Z,5.66
2023-01-13T00:40:01.149Z,5.67
2023-01-13T00:45:05.646Z,5.60
2023-01-13T00:50:08.945Z,5.54
2023-01-13T00:55:11.021Z,5.49
2023-01-13T01:00:14.982Z,5.58
2023-01-13T01:05:17.259Z,5.65
2023-01-13T01:10:19.503Z,5.86
2023-01-13T01:15:22.993Z,5.95
2023-01-13T01:20:25.022Z,5.75
2023-01-13T01:25:27.025Z,5.73
2023-01-13T01:30:30.666Z,5.75
2023-01-13T01:35:32.660Z,5.73
2023-01-13T01:40:35.130Z,5.46
2023-01-13T01:45:38.482Z,5.49
2023-01-13T01:50:40.737Z,5.53
2023-01-13T01:55:42.898Z,5.49
2023-01-13T02:00:46.247Z,5.66
2023-01-13T02:05:48.380Z,5.66
2023-01-13T02:10:53.797Z,5.59
2023-01-13T02:16:02.540Z,5.46
2023-01-13T02:21:24.017Z,5.48
2023-01-13T02:27:02.659Z,5.40
2023-01-13T02:32:17.786Z,5.45
2023-01-13T02:37:28.677Z,5.58
2023-01-13T02:42:51.502Z,5.48
2023-01-13T02:47:58.493Z,5.61
2023-01-13T02:53:05.939Z,5.61
2023-01-13T02:58:11.983Z,5.54
2023-01-13T03:03:15.640Z,5.47
2023-01-13T03:08:30.208Z,5.69
2023-01-13T03:13:51.245Z,5.71
2023-01-13T03:19:04.946Z,5.81
2023-01-13T03:24:12.333Z,5.72
2023-01-13T03:29:20.797Z,5.70
2023-01-13T03:34:30.266Z,5.61
2023-01-13T03:39:37.677Z,5.72
2023-01-13T03:44:46.013Z,5.72
2023-01-13T03:49:56.111Z,5.81
2023-01-13T03:55:02.472Z,5.90
2023-01-13T04:00:09.487Z,6.04
2023-01-13T04:05:14.129Z,5.98
2023-01-13T04:10:20.028Z,5.96
2023-01-13T04:15:24.106Z,5.97
2023-01-13T04:20:27.601Z,6.00
2023-01-13T04:25:29.422Z,6.21
2023-01-13T04:30:31.579Z,6.23
2023-01-13T04:35:35.666Z,6.08
2023-01-13T04:40:38.030Z,6.10
2023-01-13T04:45:39.981Z,6.20
2023-01-13T04:50:43.526Z,6.17
2023-01-13T04:55:47.776Z,6.19
2023-01-13T05:00:50.451Z,6.19
2023-01-13T05:05:53.771Z,6.00
2023-01-13T05:10:55.714Z,6.14
2023-01-13T05:16:23.209Z,5.95
2023-01-13T05:21:45.258Z,6.01
2023-01-13T05:26:47.220Z,5.90
2023-01-13T05:31:49.302Z,5.83
2023-01-13T05:36:52.583Z,5.95
2023-01-13T05:42:13.072Z,5.93
2023-01-13T05:47:15.066Z,5.96
2023-01-13T05:52:18.372Z,5.92
2023-01-13T05:57:20.295Z,5.96
2023-01-13T06:02:22.439Z,5.95
2023-01-13T06:07:25.759Z,6.08
2023-01-13T06:12:27.723Z,5.95
2023-01-13T06:17:29.694Z,6.09
2023-01-13T06:22:35.515Z,6.21
2023-01-13T06:27:38.065Z,6.31
2023-01-13T06:32:43.980Z,6.36
2023-01-13T06:37:50.485Z,6.28
2023-01-13T06:43:15.978Z,6.37
2023-01-13T06:48:20.251Z,6.37
2023-01-13T06:53:23.510Z,6.34
2023-01-13T06:58:25.507Z,6.27
2023-01-13T07:03:27.463Z,6.30
2023-01-13T07:08:31.263Z,6.39
2023-01-13T07:13:53.420Z,6.46
2023-01-13T07:18:55.410Z,6.46
2023-01-13T07:23:58.700Z,6.44
2023-01-13T07:29:00.994Z,6.55
2023-01-13T07:34:04.037Z,6.63
2023-01-13T07:39:07.375Z,6.61
2023-01-13T07:44:10.781Z,6.48
2023-01-13T07:49:13.183Z,6.63
2023-01-13T07:54:17.180Z,6.68
2023-01-13T07:59:20.108Z,6.96
2023-01-13T08:04:22.385Z,7.21
2023-01-13T08:09:25.953Z,7.27
2023-01-13T08:14:27.912Z,7.40
2023-01-13T08:19:29.851Z,7.62
2023-01-13T08:24:33.171Z,7.66
2023-01-13T08:29:34.983Z,7.69
2023-01-13T08:34:36.966Z,7.60
2023-01-13T08:39:40.356Z,7.40
2023-01-13T08:44:42.368Z,7.53
2023-01-13T08:49:44.320Z,7.44
2023-01-13T08:54:47.815Z,7.58
2023-01-13T08:59:49.785Z,7.68
2023-01-13T09:04:52.615Z,7.70
2023-01-13T09:09:56.948Z,7.74
2023-01-13T09:14:59.047Z,8.04
2023-01-13T09:20:01.040Z,8.19
2023-01-13T09:25:05.096Z,8.25
2023-01-13T09:30:08.462Z,7.99
2023-01-13T09:35:10.468Z,7.88
2023-01-13T09:40:19.087Z,8.00
2023-01-13T09:45:25.367Z,8.09
2023-01-13T09:50:45.877Z,7.90
2023-01-13T09:55:49.581Z,7.76
2023-01-13T10:01:04.713Z,7.83
2023-01-13T10:06:15.530Z,7.62
2023-01-13T10:11:39.316Z,7.94
2023-01-13T10:16:47.254Z,8.15
2023-01-13T10:22:17.435Z,8.46
2023-01-13T10:27:28.923Z,8.69
2023-01-13T10:32:30.906Z,8.40
2023-01-13T10:37:32.860Z,8.62
2023-01-13T10:42:36.176Z,8.77
2023-01-13T10:47:38.155Z,8.89
2023-01-13T10:52:43.384Z,8.69
2023-01-13T10:57:46.727Z,8.76
2023-01-13T11:03:15.298Z,8.83
2023-01-13T11:08:18.913Z,8.90
2023-01-13T11:13:32.060Z,8.91
2023-01-13T11:18:43.583Z,9.20
2023-01-13T11:23:52.295Z,8.90
2023-01-13T11:29:00.853Z,8.71
2023-01-13T11:34:07.885Z,8.44
2023-01-13T11:39:19.492Z,8.48
2023-01-13T11:44:34.421Z,8.36
2023-01-13T11:49:38.616Z,8.22
2023-01-13T11:55:01.696Z,8.20
2023-01-13T12:00:28.160Z,7.92
2023-01-13T12:05:36.779Z,8.04
2023-01-13T12:10:46.438Z,8.04
2023-01-13T12:16:21.303Z,8.02
2023-01-13T12:21:25.658Z,8.21
2023-01-13T12:26:32.632Z,7.90
2023-01-13T12:31:38.822Z,7.70
2023-01-13T12:36:51.549Z,7.57
2023-01-13T12:42:17.841Z,7.26
2023-01-13T12:47:34.959Z,7.38
2023-01-13T12:52:44.077Z,7.46
2023-01-13T12:58:12.828Z,7.52
2023-01-13T13:03:27.550Z,7.47
2023-01-13T13:09:01.087Z,7.50
2023-01-13T13:14:05.169Z,7.56
2023-01-13T13:19:43.588Z,7.35
2023-01-13T13:25:27.490Z,7.76
2023-01-13T13:30:31.038Z,7.76
2023-01-13T13:35:52.343Z,7.91
2023-01-13T13:41:12.944Z,8.16
2023-01-13T13:46:42.673Z,7.86
2023-01-13T13:51:54.680Z,7.63
2023-01-13T13:56:58.149Z,7.46
2023-01-13T14:02:03.517Z,7.33
2023-01-13T14:07:18.344Z,7.41
2023-01-13T14:12:22.640Z,7.35
2023-01-13T14:17:28.378Z,7.32
2023-01-13T14:22:32.438Z,7.33
2023-01-13T14:27:35.407Z,7.38
2023-01-13T14:32:37.918Z,7.35
2023-01-13T14:37:43.161Z,7.31
2023-01-13T14:42:45.134Z,7.28
2023-01-13T14:47:52.447Z,7.25
2023-01-13T14:52:57.188Z,7.03
2023-01-13T14:58:24.338Z,7.13
2023-01-13T15:03:26.321Z,7.00
2023-01-13T15:08:34.855Z,7.00
2023-01-13T15:13:42.280Z,6.90
2023-01-13T15:18:47.214Z,6.88
2023-01-13T15:23:51.846Z,7.01
2023-01-13T15:28:56.058Z,7.03
2023-01-13T15:34:00.108Z,7.02
2023-01-13T15:39:04.151Z,6.86
2023-01-13T15:44:24.730Z,6.76
2023-01-13T15:49:34.893Z,6.61
2023-01-13T15:54:38.238Z,6.56
2023-01-13T15:59:40.231Z,6.48
2023-01-13T16:04:42.378Z,6.53
2023-01-13T16:09:45.937Z,6.50
2023-01-13T16:14:47.965Z,6.43
2023-01-13T16:19:50.069Z,6.48
2023-01-13T16:24:53.451Z,6.41
2023-01-13T16:29:55.496Z,6.39
2023-01-13T16:34:59.198Z,6.45
2023-01-13T16:40:03.427Z,6.45
2023-01-13T16:45:09.520Z,6.42
2023-01-13T16:50:23.393Z,6.42
2023-01-13T16:55:27.712Z,6.44
2023-01-13T17:00:29.984Z,6.46
2023-01-13T17:05:32.022Z,6.44
2023-01-13T17:10:35.376Z,6.35
2023-01-13T17:15:37.377Z,6.45
2023-01-13T17:20:40.254Z,6.51
2023-01-13T17:25:43.618Z,6.37
2023-01-13T17:30:46.937Z,6.34
2023-01-13T17:35:49.018Z,6.36
2023-01-13T17:40:52.374Z,6.45
2023-01-13T17:45:54.434Z,6.48
2023-01-13T17:50:56.447Z,6.50
2023-01-13T17:55:59.793Z,6.54
2023-01-13T18:01:06.459Z,6.62
2023-01-13T18:06:14.338Z,6.58
2023-01-13T18:11:19.314Z,6.58
2023-01-13T18:16:21.457Z,6.50
2023-01-13T18:21:44.961Z,6.48
2023-01-13T18:27:07.174Z,6.52
2023-01-13T18:32:09.430Z,6.28
2023-01-13T18:37:13.045Z,6.12
2023-01-13T18:42:34.864Z,6.23
2023-01-13T18:47:39.106Z,5.99
2023-01-13T18:52:41.395Z,5.84
2023-01-13T18:57:45.041Z,5.69
2023-01-13T19:02:47.691Z,5.62
2023-01-13T19:07:51.679Z,5.43
2023-01-13T19:12:55.001Z,5.42
2023-01-13T19:17:56.994Z,5.38
2023-01-13T19:22:59.113Z,5.19
2023-01-13T19:28:02.508Z,5.17
2023-01-13T19:33:04.507Z,5.22
2023-01-13T19:38:06.574Z,5.13
2023-01-13T19:43:28.821Z,5.00
2023-01-13T19:48:32.656Z,5.08
2023-01-13T19:53:34.846Z,5.09
2023-01-13T19:58:38.485Z,5.05
2023-01-13T20:03:40.951Z,5.08
2023-01-13T20:08:45.998Z,5.06
2023-01-13T20:13:49.503Z,5.01
2023-01-13T20:18:51.739Z,4.69
2023-01-13T20:23:53.914Z,4.79
2023-01-13T20:28:57.449Z,4.75
2023-01-13T20:33:59.439Z,4.61
2023-01-13T20:39:05.517Z,4.86
2023-01-13T20:44:12.283Z,4.64
2023-01-13T20:49:15.846Z,4.89
2023-01-13T20:54:18.494Z,4.69
2023-01-13T20:59:22.885Z,4.46
2023-01-13T21:04:25.532Z,4.58
2023-01-13T21:09:27.649Z,4.62
2023-01-13T21:14:49.942Z,4.67
2023-01-13T21:19:51.911Z,4.87
2023-01-13T21:24:53.965Z,4.70
2023-01-13T21:29:57.372Z,4.76
2023-01-13T21:34:59.430Z,4.79
2023-01-13T21:40:01.508Z,4.76
2023-01-13T21:45:24.038Z,4.98
2023-01-13T21:50:26.980Z,5.00
2023-01-13T21:55:29.394Z,4.99
2023-01-13T22:00:34.254Z,5.21
2023-01-13T22:05:36.612Z,5.50
2023-01-13T22:10:57.016Z,5.43
2023-01-13T22:16:04.605Z,5.52
2023-01-13T22:21:06.756Z,5.40
2023-01-13T22:26:08.905Z,5.46
2023-01-13T22:31:14.413Z,5.51
2023-01-13T22:36:16.413Z,5.57
2023-01-13T22:41:18.514Z,5.58
2023-01-13T22:46:22.935Z,5.60
2023-01-13T22:51:26.501Z,5.63
2023-01-13T22:56:28.453Z,5.53
2023-01-13T23:01:33.231Z,5.64
2023-01-13T23:06:35.504Z,5.55
2023-01-13T23:11:37.580Z,5.20
2023-01-13T23:16:41.381Z,4.79
2023-01-13T23:21:43.472Z,4.75
2023-01-13T23:26:45.481Z,4.69
2023-01-13T23:31:48.851Z,4.57
2023-01-13T23:36:50.840Z,4.69
2023-01-13T23:41:52.867Z,4.60
2023-01-13T23:46:56.238Z,4.54
2023-01-13T23:51:58.331Z,4.53
2023-01-13T23:57:00.590Z,4.45
